Time;durP1;ratioP1;P1;durP2;ratioP2;P2;SDS_P1;SDS_P2;PMS_P1;PMS_P2;Temp;Humidity;BMP_temperature;BMP_pressure;BME280_temperature;BME280_humidity;BME280_pressure;Samples;Min_cycle;Max_cycle;Signal;HPM_P1;HPM_P2
2021/01/01 00:00:23;;;;;;;8.10;7.40;;;;;17.40;99355.00;;;;2063269;28;20575;-50
2021/01/01 00:01:23;;;;;;;8.97;8.27;;;;;17.40;99358.00;;;;2063322;28;20302;-50
2021/01/01 00:02:23;;;;;;;8.77;7.97;;;;;17.30;99347.00;;;;2063034;28;20227;-51
2021/01/01 00:03:24;;;;;;;8.77;8.07;;;;;17.40;99352.00;;;;2063256;28;20223;-51
2021/01/01 00:04:24;;;;;;;8.60;7.90;;;;;17.40;99348.00;;;;2063086;28;20223;-52
2021/01/01 00:05:24;;;;;;;8.03;7.43;;;;;17.40;99349.00;;;;2062730;28;20311;-52
2021/01/01 00:06:25;;;;;;;9.27;8.47;;;;;17.40;99353.00;;;;2062923;28;20219;-52
2021/01/01 00:07:25;;;;;;;9.50;8.80;;;;;17.40;99367.00;;;;2062714;28;20221;-50
2021/01/01 00:08:25;;;;;;;9.10;8.40;;;;;17.40;99363.00;;;;2062862;28;20255;-50
2021/01/01 00:09:26;;;;;;;8.67;7.97;;;;;17.40;99360.00;;;;2063125;28;20265;-49
2021/01/01 00:10:27;;;;;;;8.80;7.95;;;;;17.40;99359.00;;;;2062856;28;20221;-50
2021/01/01 00:11:27;;;;;;;9.30;8.50;;;;;17.30;99357.00;;;;2061460;28;20215;-50
2021/01/01 00:12:28;;;;;;;9.27;8.50;;;;;17.30;99357.00;;;;2062998;28;20298;-50
2021/01/01 00:13:28;;;;;;;8.87;8.07;;;;;17.40;99359.00;;;;2063270;28;20562;-50
2021/01/01 00:14:28;;;;;;;10.17;9.37;;;;;17.40;99352.00;;;;2062251;28;20211;-51
2021/01/01 00:15:29;;;;;;;9.10;8.40;;;;;17.40;99360.00;;;;2062952;28;20920;-52
2021/01/01 00:16:29;;;;;;;9.63;8.83;;;;;17.40;99359.00;;;;2063272;28;20211;-52
2021/01/01 00:17:30;;;;;;;9.90;9.10;;;;;17.30;99356.00;;;;2062774;28;20211;-51
2021/01/01 00:18:31;;;;;;;10.05;9.20;;;;;17.30;99362.00;;;;2062924;28;20220;-51
2021/01/01 00:19:31;;;;;;;10.33;9.50;;;;;17.30;99361.00;;;;2063147;28;20295;-50
2021/01/01 00:20:31;;;;;;;10.50;9.60;;;;;17.30;99357.00;;;;2062286;28;20211;-52
2021/01/01 00:21:32;;;;;;;10.27;9.47;;;;;17.40;99371.00;;;;2063156;28;20214;-50
2021/01/01 00:22:32;;;;;;;10.60;9.70;;;;;17.40;99366.00;;;;2062997;28;20223;-49
2021/01/01 00:23:33;;;;;;;10.37;9.50;;;;;17.40;99364.00;;;;2062794;28;21171;-50
2021/01/01 00:24:33;;;;;;;10.90;10.00;;;;;17.20;99378.00;;;;2062468;28;20628;-52
2021/01/01 00:25:33;;;;;;;9.63;8.83;;;;;17.40;99370.00;;;;2062302;28;20215;-52
2021/01/01 00:26:34;;;;;;;11.30;10.30;;;;;17.40;99373.00;;;;2063011;28;20718;-52
2021/01/01 00:27:34;;;;;;;10.27;9.37;;;;;17.30;99366.00;;;;2062664;28;20223;-51
2021/01/01 00:28:34;;;;;;;10.00;9.20;;;;;17.30;99374.00;;;;2062989;28;20215;-51
2021/01/01 00:29:35;;;;;;;10.43;9.63;;;;;17.40;99365.00;;;;2062886;28;20282;-51
2021/01/01 00:30:35;;;;;;;11.40;10.40;;;;;17.40;99363.00;;;;2062960;28;20625;-52
2021/01/01 00:31:35;;;;;;;10.77;9.90;;;;;17.30;99371.00;;;;2055597;28;20218;-51
2021/01/01 00:32:36;;;;;;;10.93;10.03;;;;;17.30;99370.00;;;;2069937;28;20242;-52
2021/01/01 00:33:36;;;;;;;11.10;10.13;;;;;17.30;99365.00;;;;2069165;28;20210;-52
2021/01/01 00:34:36;;;;;;;10.70;9.80;;;;;17.30;99368.00;;;;2062215;28;20218;-50
2021/01/01 00:35:37;;;;;;;10.43;9.53;;;;;17.30;99364.00;;;;2063055;28;20264;-49
2021/01/01 00:36:37;;;;;;;10.70;9.80;;;;;17.30;99365.00;;;;2063029;28;20270;-53
2021/01/01 00:37:38;;;;;;;10.80;9.90;;;;;17.30;99361.00;;;;2062775;28;20208;-51
2021/01/01 00:38:38;;;;;;;10.83;9.93;;;;;17.30;99369.00;;;;2062897;28;20218;-51
2021/01/01 00:39:39;;;;;;;12.33;11.23;;;;;17.30;99358.00;;;;2062891;28;20211;-51
2021/01/01 00:40:39;;;;;;;11.37;10.37;;;;;17.30;99370.00;;;;2062994;28;20456;-50
2021/01/01 00:41:40;;;;;;;10.37;9.57;;;;;17.30;99365.00;;;;2062986;28;20294;-51
2021/01/01 00:42:41;;;;;;;11.02;10.13;;;;;17.40;99368.00;;;;2062810;28;20220;-49
2021/01/01 00:43:41;;;;;;;11.27;10.27;;;;;17.30;99371.00;;;;2062917;28;20215;-50
2021/01/01 00:44:41;;;;;;;10.60;9.80;;;;;17.40;99372.00;;;;2062093;28;20246;-51
2021/01/01 00:45:42;;;;;;;11.90;10.80;;;;;17.30;99370.00;;;;2062877;28;20219;-51
2021/01/01 00:46:42;;;;;;;12.50;11.40;;;;;17.30;99374.00;;;;2062407;28;20229;-50
2021/01/01 00:47:47;;;;;;;11.67;10.70;;;;;17.30;99371.00;;;;2062575;28;20219;-50
2021/01/01 00:48:47;;;;;;;12.65;11.55;;;;;17.30;99372.00;;;;2062874;28;20636;-50
2021/01/01 00:49:47;;;;;;;12.00;11.00;;;;;17.30;99375.00;;;;2062996;28;20222;-52
2021/01/01 00:50:48;;;;;;;11.70;10.77;;;;;17.30;99376.00;;;;2062877;28;20938;-52
2021/01/01 00:51:48;;;;;;;12.87;11.73;;;;;17.30;99372.00;;;;2062937;28;20398;-49
2021/01/01 00:52:49;;;;;;;12.40;11.40;;;;;17.30;99375.00;;;;2062756;28;20231;-49
2021/01/01 00:53:49;;;;;;;11.97;11.07;;;;;17.30;99374.00;;;;2062685;28;20226;-49
2021/01/01 00:54:49;;;;;;;12.63;11.47;;;;;17.30;99369.00;;;;2062062;28;20222;-49
2021/01/01 00:55:49;;;;;;;12.37;11.27;;;;;17.30;99373.00;;;;2062837;28;20283;-50
2021/01/01 00:56:50;;;;;;;12.50;11.50;;;;;17.30;99370.00;;;;2062156;28;20568;-52
2021/01/01 00:57:50;;;;;;;11.97;10.97;;;;;17.30;99371.00;;;;2062392;28;20631;-50
2021/01/01 00:58:51;;;;;;;12.23;11.13;;;;;17.40;99379.00;;;;2062629;28;20247;-51
2021/01/01 00:59:51;;;;;;;13.13;12.03;;;;;17.40;99373.00;;;;2063021;28;20294;-49
2021/01/01 01:00:52;;;;;;;13.63;12.23;;;;;17.30;99379.00;;;;2062922;28;20220;-51
2021/01/01 01:01:52;;;;;;;13.33;12.13;;;;;17.30;99373.00;;;;2062830;28;20723;-51
2021/01/01 01:02:52;;;;;;;12.63;11.63;;;;;17.30;99380.00;;;;2062832;28;20218;-50
2021/01/01 01:03:55;;;;;;;13.73;12.53;;;;;17.30;99378.00;;;;2063056;28;20218;-50
2021/01/01 01:04:56;;;;;;;13.20;12.10;;;;;17.30;99365.00;;;;2061967;28;20218;-49
2021/01/01 01:05:56;;;;;;;13.70;12.50;;;;;17.30;99378.00;;;;2063078;28;20226;-49
2021/01/01 01:06:56;;;;;;;13.40;12.30;;;;;17.40;99376.00;;;;2062603;28;20218;-52
2021/01/01 01:07:56;;;;;;;13.10;12.10;;;;;17.40;99389.00;;;;2062725;28;20412;-51
2021/01/01 01:08:57;;;;;;;13.43;12.23;;;;;17.40;99384.00;;;;2062786;28;20227;-50
2021/01/01 01:09:57;;;;;;;13.90;12.70;;;;;17.30;99379.00;;;;2062323;28;20250;-50
2021/01/01 01:10:57;;;;;;;14.30;13.10;;;;;17.30;99382.00;;;;2062715;28;20231;-50
2021/01/01 01:11:58;;;;;;;14.90;13.60;;;;;17.40;99383.00;;;;2062042;28;20760;-49
2021/01/01 01:12:58;;;;;;;13.20;12.10;;;;;17.30;99383.00;;;;2062840;28;20227;-50
2021/01/01 01:13:59;;;;;;;13.13;12.03;;;;;17.30;99384.00;;;;2062270;28;20215;-52
2021/01/01 01:14:59;;;;;;;13.43;12.33;;;;;17.30;99384.00;;;;2061509;28;20219;-50
2021/01/01 01:15:59;;;;;;;13.70;12.60;;;;;17.30;99378.00;;;;2062908;28;20219;-49
2021/01/01 01:17:00;;;;;;;13.47;12.33;;;;;17.40;99389.00;;;;2062469;28;20243;-50
2021/01/01 01:18:00;;;;;;;14.70;13.40;;;;;17.40;99398.00;;;;2062724;28;20708;-49
2021/01/01 01:19:00;;;;;;;14.57;13.37;;;;;17.40;99388.00;;;;2062953;28;20685;-50
2021/01/01 01:20:01;;;;;;;14.60;13.30;;;;;17.40;99390.00;;;;2062841;28;20573;-50
2021/01/01 01:21:01;;;;;;;13.97;12.77;;;;;17.30;99390.00;;;;2062903;28;20215;-50
2021/01/01 01:22:02;;;;;;;14.80;13.60;;;;;17.30;99392.00;;;;2062773;28;20220;-50
2021/01/01 01:23:02;;;;;;;14.63;13.37;;;;;17.30;99388.00;;;;2062888;28;20207;-49
2021/01/01 01:24:02;;;;;;;13.90;12.70;;;;;17.30;99393.00;;;;2062754;28;20223;-49
2021/01/01 01:25:03;;;;;;;14.13;12.93;;;;;17.30;99394.00;;;;2053550;28;20274;-52
2021/01/01 01:26:04;;;;;;;14.13;12.93;;;;;17.30;99399.00;;;;2062017;28;20223;-51
2021/01/01 01:27:04;;;;;;;14.57;13.37;;;;;17.30;99394.00;;;;2061693;28;20224;-49
2021/01/01 01:28:04;;;;;;;14.47;13.27;;;;;17.30;99394.00;;;;2061985;28;21087;-50
2021/01/01 01:29:05;;;;;;;14.40;13.20;;;;;17.30;99394.00;;;;2062151;28;20218;-50
2021/01/01 01:30:05;;;;;;;14.47;13.27;;;;;17.30;99385.00;;;;2062284;28;20215;-52
2021/01/01 01:31:06;;;;;;;15.00;13.70;;;;;17.30;99404.00;;;;2062113;28;20243;-49
2021/01/01 01:32:06;;;;;;;14.67;13.47;;;;;17.30;99398.00;;;;2063134;28;20465;-50
2021/01/01 01:33:08;;;;;;;15.20;13.90;;;;;17.30;99399.00;;;;2063547;28;20207;-50
2021/01/01 01:34:08;;;;;;;15.07;13.77;;;;;17.30;99402.00;;;;2063703;28;20699;-49
2021/01/01 01:35:09;;;;;;;15.27;13.93;;;;;17.40;99402.00;;;;2063505;28;20227;-49
2021/01/01 01:36:09;;;;;;;14.90;13.63;;;;;17.30;99411.00;;;;2063962;28;20236;-49
2021/01/01 01:37:09;;;;;;;14.77;13.57;;;;;17.30;99406.00;;;;2062147;28;20219;-52
2021/01/01 01:38:10;;;;;;;14.07;12.90;;;;;17.30;99401.00;;;;2063787;28;20215;-50
2021/01/01 01:39:10;;;;;;;14.50;13.30;;;;;17.30;99406.00;;;;2063936;28;20677;-50
2021/01/01 01:40:11;;;;;;;15.47;14.17;;;;;17.30;99410.00;;;;2063766;28;20227;-50
2021/01/01 01:41:11;;;;;;;15.73;14.37;;;;;17.30;99409.00;;;;2063577;28;20219;-50
2021/01/01 01:42:11;;;;;;;15.37;14.03;;;;;17.30;99424.00;;;;2063516;28;20223;-49
2021/01/01 01:43:12;;;;;;;15.00;13.70;;;;;17.30;99398.00;;;;2063672;28;20224;-51
2021/01/01 01:44:12;;;;;;;14.30;13.10;;;;;17.30;99411.00;;;;2064064;28;20584;-50
2021/01/01 01:45:13;;;;;;;15.80;14.40;;;;;17.30;99407.00;;;;2062093;28;20402;-55
2021/01/01 01:46:13;;;;;;;15.13;13.83;;;;;17.30;99405.00;;;;2062821;28;20354;-51
2021/01/01 01:47:16;;;;;;;14.93;13.63;;;;;17.30;99402.00;;;;2063358;28;20288;-50
2021/01/01 01:48:19;;;;;;;14.60;13.30;;;;;17.30;99415.00;;;;2055052;28;20243;-50
2021/01/01 01:49:19;;;;;;;16.15;14.73;;;;;17.30;99409.00;;;;2038387;28;20224;-49
2021/01/01 01:50:19;;;;;;;15.80;14.50;;;;;17.30;99403.00;;;;2047172;28;20304;-49
2021/01/01 01:51:20;;;;;;;14.10;12.90;;;;;17.30;99399.00;;;;2046965;28;20223;-52
2021/01/01 01:52:20;;;;;;;15.57;14.30;;;;;17.30;99418.00;;;;2062609;28;20219;-50
2021/01/01 01:53:21;;;;;;;15.20;13.90;;;;;17.30;99413.00;;;;2062993;28;20274;-51
2021/01/01 01:54:21;;;;;;;14.27;13.13;;;;;17.30;99413.00;;;;2060305;28;20592;-49
2021/01/01 01:55:22;;;;;;;15.20;13.90;;;;;17.30;99404.00;;;;2062152;28;20204;-49
2021/01/01 01:56:22;;;;;;;15.00;13.80;;;;;17.30;99420.00;;;;2054640;28;20338;-51
2021/01/01 01:57:23;;;;;;;15.67;14.37;;;;;17.30;99414.00;;;;2061503;28;20346;-50
2021/01/01 01:58:23;;;;;;;16.40;14.90;;;;;17.30;99414.00;;;;2063297;28;20345;-50
2021/01/01 01:59:23;;;;;;;14.80;13.60;;;;;17.30;99417.00;;;;2054620;28;20232;-49
2021/01/01 02:00:52;;;;;;;14.50;13.30;;;;;17.30;99423.00;;;;2054863;28;20689;-49
2021/01/01 02:01:52;;;;;;;15.65;14.27;;;;;17.30;99417.00;;;;2062535;28;20219;-49
2021/01/01 02:02:53;;;;;;;14.93;13.73;;;;;17.30;99425.00;;;;2063148;28;20305;-51
2021/01/01 02:03:54;;;;;;;15.37;14.10;;;;;17.40;99423.00;;;;2063711;28;20997;-52
2021/01/01 02:04:54;;;;;;;15.50;14.20;;;;;17.30;99428.00;;;;2063124;28;20219;-51
2021/01/01 02:05:55;;;;;;;15.23;13.97;;;;;17.30;99426.00;;;;2063626;28;20315;-52
2021/01/01 02:06:55;;;;;;;16.25;14.88;;;;;17.30;99422.00;;;;2063485;28;20224;-49
2021/01/01 02:07:56;;;;;;;15.50;14.20;;;;;17.30;99430.00;;;;2045563;28;20693;-50
2021/01/01 02:08:56;;;;;;;15.07;13.83;;;;;17.30;99427.00;;;;2055091;28;20224;-49
2021/01/01 02:09:56;;;;;;;16.80;15.30;;;;;17.30;99429.00;;;;2062605;28;20289;-51
2021/01/01 02:10:57;;;;;;;15.37;14.17;;;;;17.30;99419.00;;;;2062651;28;20331;-50
2021/01/01 02:11:58;;;;;;;14.48;13.18;;;;;17.30;99425.00;;;;2054432;28;20216;-49
2021/01/01 02:12:58;;;;;;;15.00;13.70;;;;;17.30;99437.00;;;;2054633;28;20319;-49
2021/01/01 02:13:58;;;;;;;15.80;14.50;;;;;17.30;99425.00;;;;2063569;28;20219;-49
2021/01/01 02:14:59;;;;;;;15.47;14.17;;;;;17.30;99424.00;;;;2062894;28;20226;-51
2021/01/01 02:15:59;;;;;;;15.37;14.07;;;;;17.30;99429.00;;;;2063186;28;20210;-50
2021/01/01 02:16:59;;;;;;;14.90;13.70;;;;;17.30;99425.00;;;;2047261;28;20224;-49
2021/01/01 02:18:00;;;;;;;15.60;14.20;;;;;17.30;99428.00;;;;2055176;28;20287;-49
2021/01/01 02:19:00;;;;;;;15.30;14.00;;;;;17.30;99433.00;;;;2064095;28;20231;-49
2021/01/01 02:20:07;;;;;;;14.93;13.63;;;;;17.30;99428.00;;;;2064224;28;20220;-51
2021/01/01 02:21:08;;;;;;;15.43;14.13;;;;;17.30;99438.00;;;;2063973;28;20216;-50
2021/01/01 02:22:08;;;;;;;15.00;13.70;;;;;17.30;99435.00;;;;2063243;28;20681;-50
2021/01/01 02:23:09;;;;;;;14.83;13.53;;;;;17.40;99385.00;;;;2063650;28;20549;-51
2021/01/01 02:24:09;;;;;;;15.10;13.77;;;;;17.30;99433.00;;;;2063605;28;20572;-51
2021/01/01 02:25:10;;;;;;;15.00;13.70;;;;;17.30;99425.00;;;;2062651;28;20592;-50
2021/01/01 02:26:11;;;;;;;14.80;13.60;;;;;17.30;99430.00;;;;2062969;28;20462;-49
2021/01/01 02:27:11;;;;;;;15.10;13.80;;;;;17.30;99430.00;;;;2063163;28;20577;-51
2021/01/01 02:28:11;;;;;;;15.70;14.40;;;;;17.30;99435.00;;;;2062448;28;20295;-50
2021/01/01 02:29:12;;;;;;;14.17;12.93;;;;;17.30;99428.00;;;;2063281;28;20216;-50
2021/01/01 02:30:12;;;;;;;14.60;13.30;;;;;17.30;99440.00;;;;2063140;28;20222;-50
2021/01/01 02:31:13;;;;;;;14.80;13.50;;;;;17.30;99438.00;;;;2063923;28;20340;-51
2021/01/01 02:32:13;;;;;;;14.23;13.03;;;;;17.30;99437.00;;;;2063822;28;20585;-50
2021/01/01 02:33:13;;;;;;;15.07;13.87;;;;;17.30;99434.00;;;;2064108;28;20219;-52
2021/01/01 02:34:14;;;;;;;15.00;13.80;;;;;17.30;99435.00;;;;2063988;28;20226;-52
2021/01/01 02:35:14;;;;;;;15.40;14.10;;;;;17.30;99444.00;;;;2063247;28;20212;-52
2021/01/01 02:36:14;;;;;;;15.07;13.77;;;;;17.30;99441.00;;;;2063896;28;20215;-50
2021/01/01 02:37:14;;;;;;;15.17;13.83;;;;;17.30;99438.00;;;;2063677;28;20211;-50
2021/01/01 02:38:15;;;;;;;14.80;13.60;;;;;17.30;99438.00;;;;2063758;28;20286;-49
2021/01/01 02:39:15;;;;;;;15.50;13.97;;;;;17.30;99432.00;;;;2063824;28;20342;-49
2021/01/01 02:40:16;;;;;;;14.93;13.73;;;;;17.30;99435.00;;;;2063883;28;20299;-51
2021/01/01 02:41:16;;;;;;;16.13;14.80;;;;;17.30;99434.00;;;;2063638;28;20278;-50
2021/01/01 02:42:16;;;;;;;15.20;13.80;;;;;17.30;99428.00;;;;2063639;28;20220;-49
2021/01/01 02:43:17;;;;;;;14.53;13.37;;;;;17.30;99446.00;;;;2063054;28;20627;-52
2021/01/01 02:44:18;;;;;;;14.60;13.40;;;;;17.30;99430.00;;;;2063757;28;20239;-50
2021/01/01 02:45:19;;;;;;;15.27;14.07;;;;;17.30;99439.00;;;;2063034;28;20735;-52
2021/01/01 02:46:19;;;;;;;15.07;13.70;;;;;17.30;99441.00;;;;2063856;28;20306;-50
2021/01/01 02:47:19;;;;;;;15.13;13.83;;;;;17.30;99440.00;;;;2062639;28;20456;-54
2021/01/01 02:48:20;;;;;;;15.13;13.87;;;;;17.30;99435.00;;;;2063756;28;20741;-52
2021/01/01 02:49:20;;;;;;;15.33;14.03;;;;;17.30;99441.00;;;;2063878;28;20222;-51
2021/01/01 02:50:21;;;;;;;16.10;14.60;;;;;17.30;99445.00;;;;2063868;28;20626;-50
2021/01/01 02:51:21;;;;;;;14.93;13.63;;;;;17.30;99446.00;;;;2063789;28;20690;-49
2021/01/01 02:52:21;;;;;;;14.90;13.60;;;;;17.30;99445.00;;;;2063733;28;20303;-50
2021/01/01 02:53:22;;;;;;;14.00;12.90;;;;;17.30;99450.00;;;;2063686;28;20215;-51
2021/01/01 02:54:22;;;;;;;14.97;13.67;;;;;17.30;99446.00;;;;2063865;28;20626;-51
2021/01/01 02:55:22;;;;;;;15.03;13.73;;;;;17.30;99445.00;;;;2063022;28;20251;-50
2021/01/01 02:56:23;;;;;;;14.57;13.37;;;;;17.30;99449.00;;;;2063651;28;20234;-50
2021/01/01 02:57:23;;;;;;;15.13;13.90;;;;;17.30;99450.00;;;;2063288;28;20217;-49
2021/01/01 02:58:23;;;;;;;14.80;13.60;;;;;17.30;99444.00;;;;2063639;28;20215;-49
2021/01/01 02:59:24;;;;;;;14.47;13.27;;;;;17.30;99445.00;;;;2063820;28;20254;-53
2021/01/01 03:00:24;;;;;;;15.00;13.70;;;;;17.30;99449.00;;;;2063638;28;20717;-52
2021/01/01 03:01:25;;;;;;;15.30;14.00;;;;;17.30;99447.00;;;;2063694;28;20302;-50
2021/01/01 03:02:26;;;;;;;14.83;13.60;;;;;17.30;99440.00;;;;2063904;28;20216;-50
2021/01/01 03:03:27;;;;;;;13.75;12.55;;;;;17.30;99445.00;;;;2063831;28;20208;-50
2021/01/01 03:04:27;;;;;;;14.27;13.07;;;;;17.30;99439.00;;;;2063592;28;20211;-53
2021/01/01 03:05:27;;;;;;;13.43;12.33;;;;;17.30;99439.00;;;;2063109;28;20211;-49
2021/01/01 03:06:28;;;;;;;14.60;13.40;;;;;17.30;99442.00;;;;2063754;28;20210;-50
2021/01/01 03:07:28;;;;;;;14.63;13.30;;;;;17.30;99436.00;;;;2063342;28;20211;-51
2021/01/01 03:08:28;;;;;;;14.43;13.23;;;;;17.30;99438.00;;;;2063355;28;20242;-53
2021/01/01 03:09:29;;;;;;;15.00;13.80;;;;;17.30;99440.00;;;;2063458;28;20203;-51
2021/01/01 03:10:29;;;;;;;14.07;12.90;;;;;17.30;99446.00;;;;2063695;28;20211;-50
2021/01/01 03:11:29;;;;;;;14.20;13.00;;;;;17.30;99450.00;;;;2063544;28;20585;-50
2021/01/01 03:12:30;;;;;;;14.87;13.67;;;;;17.30;99438.00;;;;2063556;28;20208;-50
2021/01/01 03:13:30;;;;;;;14.07;12.97;;;;;17.30;99442.00;;;;2063639;28;20208;-50
2021/01/01 03:14:30;;;;;;;15.57;14.17;;;;;17.30;99455.00;;;;2063305;28;20236;-50
2021/01/01 03:15:31;;;;;;;13.70;12.60;;;;;17.30;99440.00;;;;2063157;28;20258;-51
2021/01/01 03:16:31;;;;;;;14.13;12.93;;;;;17.30;99445.00;;;;2063634;28;20719;-51
2021/01/01 03:17:31;;;;;;;13.80;12.70;;;;;17.30;99446.00;;;;2063468;28;20593;-50
2021/01/01 03:18:32;;;;;;;13.43;12.33;;;;;17.30;99454.00;;;;2063362;28;20212;-50
2021/01/01 03:19:32;;;;;;;14.53;13.33;;;;;17.30;99449.00;;;;2063531;28;20300;-50
2021/01/01 03:20:32;;;;;;;14.50;13.30;;;;;17.30;99444.00;;;;2063619;28;20207;-50
2021/01/01 03:21:33;;;;;;;13.37;12.27;;;;;17.30;99454.00;;;;2062872;28;20211;-50
2021/01/01 03:22:33;;;;;;;14.70;13.50;;;;;17.30;99447.00;;;;2063300;28;20310;-51
2021/01/01 03:23:33;;;;;;;13.70;12.50;;;;;17.30;99456.00;;;;2063541;28;20222;-52
2021/01/01 03:24:34;;;;;;;14.50;13.27;;;;;17.30;99460.00;;;;2062916;28;20281;-53
2021/01/01 03:25:34;;;;;;;13.60;12.50;;;;;17.30;99449.00;;;;2063413;28;20289;-51
2021/01/01 03:26:34;;;;;;;12.97;11.87;;;;;17.30;99458.00;;;;2062887;28;20624;-50
2021/01/01 03:27:35;;;;;;;13.10;12.00;;;;;17.30;99452.00;;;;2063059;28;20215;-50
2021/01/01 03:28:35;;;;;;;14.07;12.87;;;;;17.30;99456.00;;;;2063472;28;20223;-52
2021/01/01 03:29:35;;;;;;;13.60;12.50;;;;;17.30;99455.00;;;;2063381;28;20298;-50
2021/01/01 03:30:36;;;;;;;13.30;12.20;;;;;17.30;99455.00;;;;2063471;28;20226;-49
2021/01/01 03:31:36;;;;;;;14.60;13.40;;;;;17.30;99452.00;;;;2063544;28;20266;-50
2021/01/01 03:32:37;;;;;;;14.17;12.87;;;;;17.30;99455.00;;;;2063451;28;20285;-50
2021/01/01 03:33:37;;;;;;;12.97;11.97;;;;;17.30;99459.00;;;;2063446;28;20307;-52
2021/01/01 03:34:37;;;;;;;13.53;12.33;;;;;17.30;99449.00;;;;2062863;28;20215;-52
2021/01/01 03:35:38;;;;;;;12.97;11.87;;;;;17.30;99444.00;;;;2063443;28;20223;-50
2021/01/01 03:36:38;;;;;;;14.20;13.00;;;;;17.30;99455.00;;;;2063385;28;20689;-50
2021/01/01 03:37:39;;;;;;;12.90;11.90;;;;;17.30;99456.00;;;;2061999;28;20758;-51
2021/01/01 03:38:39;;;;;;;13.53;12.47;;;;;17.30;99456.00;;;;2062474;28;20215;-50
2021/01/01 03:39:39;;;;;;;13.57;12.37;;;;;17.30;99452.00;;;;2061647;28;20212;-49
2021/01/01 03:40:40;;;;;;;13.87;12.47;;;;;17.30;99454.00;;;;2062877;28;20215;-52
2021/01/01 03:41:40;;;;;;;13.90;12.80;;;;;17.30;99452.00;;;;2062806;28;20314;-51
2021/01/01 03:42:40;;;;;;;13.03;12.03;;;;;17.30;99450.00;;;;2062705;28;20212;-50
2021/01/01 03:43:41;;;;;;;13.40;12.30;;;;;17.30;99464.00;;;;2063040;28;20257;-50
2021/01/01 03:44:41;;;;;;;12.13;11.13;;;;;17.30;99456.00;;;;2062026;28;20660;-51
2021/01/01 03:45:41;;;;;;;13.00;11.90;;;;;17.30;99460.00;;;;2061953;28;20207;-50
2021/01/01 03:46:42;;;;;;;12.70;11.60;;;;;17.30;99455.00;;;;2061948;28;20310;-49
2021/01/01 03:47:42;;;;;;;13.73;12.57;;;;;17.30;99453.00;;;;2062212;28;20219;-51
2021/01/01 03:48:42;;;;;;;12.60;11.60;;;;;17.30;99455.00;;;;2062685;28;20662;-50
2021/01/01 03:49:43;;;;;;;13.10;12.00;;;;;17.30;99455.00;;;;2063172;28;20628;-49
2021/01/01 03:50:43;;;;;;;13.03;11.93;;;;;17.30;99466.00;;;;2063404;28;20310;-49
2021/01/01 03:51:43;;;;;;;12.37;11.37;;;;;17.30;99464.00;;;;2062709;28;20215;-51
2021/01/01 03:52:44;;;;;;;12.23;11.23;;;;;17.30;99468.00;;;;2063097;28;20278;-52
2021/01/01 03:53:44;;;;;;;13.10;12.00;;;;;17.30;99468.00;;;;2063306;28;20692;-52
2021/01/01 03:54:44;;;;;;;12.77;11.67;;;;;17.30;99464.00;;;;2062396;28;21019;-51
2021/01/01 03:55:46;;;;;;;13.30;12.10;;;;;17.30;99468.00;;;;2063251;28;20640;-50
2021/01/01 03:56:46;;;;;;;13.40;12.30;;;;;17.30;99462.00;;;;2062980;28;20207;-50
2021/01/01 03:57:46;;;;;;;14.63;13.33;;;;;17.30;99463.00;;;;2062314;28;20223;-51
2021/01/01 03:58:47;;;;;;;12.77;11.67;;;;;17.30;99471.00;;;;2063115;28;20223;-51
2021/01/01 03:59:47;;;;;;;11.97;10.97;;;;;17.30;99476.00;;;;2063203;28;20228;-50
2021/01/01 04:00:47;;;;;;;12.60;11.60;;;;;17.30;99472.00;;;;2063129;28;20219;-50
2021/01/01 04:01:48;;;;;;;13.70;12.60;;;;;17.30;99473.00;;;;2063248;28;20222;-51
2021/01/01 04:02:48;;;;;;;13.17;12.00;;;;;17.30;99471.00;;;;2063144;28;20224;-51
2021/01/01 04:03:48;;;;;;;12.37;11.37;;;;;17.30;99473.00;;;;2063201;28;20219;-51
2021/01/01 04:04:49;;;;;;;12.30;11.30;;;;;17.20;99468.00;;;;2062451;28;20226;-51
2021/01/01 04:05:49;;;;;;;12.50;11.50;;;;;17.20;99466.00;;;;2062961;28;20211;-50
2021/01/01 04:06:49;;;;;;;12.67;11.57;;;;;17.20;99468.00;;;;2063143;28;20584;-51
2021/01/01 04:07:50;;;;;;;12.87;11.77;;;;;17.30;99468.00;;;;2062798;28;20223;-50
2021/01/01 04:08:50;;;;;;;12.47;11.47;;;;;17.30;99469.00;;;;2063199;28;20215;-50
2021/01/01 04:09:50;;;;;;;12.67;11.57;;;;;17.20;99468.00;;;;2063215;28;20218;-50
2021/01/01 04:10:51;;;;;;;13.47;12.37;;;;;17.20;99468.00;;;;2063241;28;20218;-51
2021/01/01 04:11:51;;;;;;;12.80;11.73;;;;;17.30;99468.00;;;;2063117;28;20211;-50
2021/01/01 04:12:52;;;;;;;12.43;11.30;;;;;17.20;99469.00;;;;2063086;28;20648;-50
2021/01/01 04:13:52;;;;;;;12.93;11.93;;;;;17.20;99471.00;;;;2063002;28;20225;-50
2021/01/01 04:14:52;;;;;;;13.77;12.63;;;;;17.30;99466.00;;;;2062427;28;20215;-49
2021/01/01 04:15:53;;;;;;;12.97;11.97;;;;;17.30;99466.00;;;;2062850;28;20224;-52
2021/01/01 04:16:53;;;;;;;13.47;12.37;;;;;17.30;99466.00;;;;2063015;28;20326;-51
2021/01/01 04:17:53;;;;;;;13.03;11.93;;;;;17.30;99460.00;;;;2062931;28;20223;-50
2021/01/01 04:18:54;;;;;;;12.40;11.40;;;;;17.30;99468.00;;;;2063169;28;20294;-51
2021/01/01 04:19:54;;;;;;;12.67;11.53;;;;;17.30;99468.00;;;;2063218;28;20222;-50
2021/01/01 04:20:55;;;;;;;12.73;11.73;;;;;17.30;99467.00;;;;2062618;28;20216;-50
2021/01/01 04:21:55;;;;;;;12.10;11.10;;;;;17.30;99471.00;;;;2063020;28;20310;-51
2021/01/01 04:22:55;;;;;;;12.17;11.13;;;;;17.30;99470.00;;;;2062797;28;20223;-50
2021/01/01 04:23:56;;;;;;;13.10;12.00;;;;;17.20;99471.00;;;;2063054;28;20223;-51
2021/01/01 04:24:56;;;;;;;12.53;11.53;;;;;17.30;99468.00;;;;2062581;28;20299;-49
2021/01/01 04:25:56;;;;;;;12.20;11.20;;;;;17.30;99477.00;;;;2062961;28;20219;-50
2021/01/01 04:26:57;;;;;;;12.30;11.30;;;;;17.30;99467.00;;;;2062767;28;20270;-50
2021/01/01 04:27:57;;;;;;;12.07;11.10;;;;;17.30;99472.00;;;;2062508;28;20230;-49
2021/01/01 04:28:57;;;;;;;11.97;10.97;;;;;17.30;99471.00;;;;2062826;28;20699;-51
2021/01/01 04:29:58;;;;;;;11.93;11.03;;;;;17.30;99474.00;;;;2063054;28;20584;-50
2021/01/01 04:30:58;;;;;;;11.83;10.83;;;;;17.30;99468.00;;;;2062755;28;20215;-50
2021/01/01 04:31:58;;;;;;;11.67;10.77;;;;;17.30;99469.00;;;;2062851;28;20274;-49
2021/01/01 04:32:59;;;;;;;11.90;10.90;;;;;17.30;99474.00;;;;2062963;28;20226;-50
2021/01/01 04:33:59;;;;;;;12.00;11.00;;;;;17.30;99474.00;;;;2063098;28;20254;-50
2021/01/01 04:34:59;;;;;;;11.40;10.50;;;;;17.20;99469.00;;;;2062325;28;20246;-49
2021/01/01 04:36:00;;;;;;;11.90;10.93;;;;;17.30;99473.00;;;;2062901;28;20228;-52
2021/01/01 04:37:00;;;;;;;11.87;10.90;;;;;17.30;99468.00;;;;2062819;28;20342;-50
2021/01/01 04:38:01;;;;;;;11.63;10.67;;;;;17.30;99469.00;;;;2062862;28;20251;-50
2021/01/01 04:39:02;;;;;;;10.90;10.00;;;;;17.20;99472.00;;;;2063006;28;20601;-49
2021/01/01 04:40:04;;;;;;;11.93;10.93;;;;;17.20;99472.00;;;;2062324;28;20656;-50
2021/01/01 04:41:07;;;;;;;11.27;10.30;;;;;17.30;99473.00;;;;2063074;28;20656;-51
2021/01/01 04:42:07;;;;;;;11.27;10.43;;;;;17.30;99472.00;;;;2071661;28;20706;-50
2021/01/01 04:43:07;;;;;;;12.00;11.00;;;;;17.30;99474.00;;;;2078318;28;20214;-49
2021/01/01 04:44:08;;;;;;;11.97;10.93;;;;;17.30;99463.00;;;;2066167;28;20219;-52
2021/01/01 04:45:09;;;;;;;11.67;10.67;;;;;17.20;99470.00;;;;2062363;28;20291;-50
2021/01/01 04:46:09;;;;;;;11.73;10.82;;;;;17.20;99468.00;;;;2062758;28;20218;-49
2021/01/01 04:47:10;;;;;;;11.30;10.33;;;;;17.20;99475.00;;;;2072242;28;20198;-49
2021/01/01 04:48:10;;;;;;;11.88;10.98;;;;;17.30;99474.00;;;;2070086;28;20242;-50
2021/01/01 04:49:11;;;;;;;11.47;10.50;;;;;17.30;99469.00;;;;2065262;28;20263;-49
2021/01/01 04:50:11;;;;;;;10.87;10.07;;;;;17.30;99478.00;;;;2072461;28;20202;-51
2021/01/01 04:51:12;;;;;;;11.00;10.10;;;;;17.20;99466.00;;;;2069772;28;20215;-50
2021/01/01 04:52:12;;;;;;;10.90;10.00;;;;;17.20;99472.00;;;;2063880;28;20215;-51
2021/01/01 04:53:13;;;;;;;11.70;10.80;;;;;17.30;99469.00;;;;2061855;28;20305;-50
2021/01/01 04:54:14;;;;;;;11.38;10.48;;;;;17.20;99474.00;;;;2061768;28;20924;-49
2021/01/01 04:55:15;;;;;;;10.63;9.77;;;;;17.20;99477.00;;;;2063914;28;20306;-52
2021/01/01 04:56:16;;;;;;;9.98;9.18;;;;;17.30;99477.00;;;;2077674;28;20214;-50